sensor_id;sensor_type;location;lat;lon;timestamp;pressure;altitude;pressure_sealevel;temperature;humidity
70833;BME280;58452;59.418;17.962;2023-05-20T00:00:13;102966.28;;;9.56;59.10
70833;BME280;58452;59.418;17.962;2023-05-20T00:02:38;102969.03;;;9.53;59.21
70833;BME280;58452;59.418;17.962;2023-05-20T00:05:04;102970.09;;;9.49;59.58
70833;BME280;58452;59.418;17.962;2023-05-20T00:07:30;102968.41;;;9.48;59.65
70833;BME280;58452;59.418;17.962;2023-05-20T00:09:56;102972.81;;;9.46;60.00
70833;BME280;58452;59.418;17.962;2023-05-20T00:12:21;102970.38;;;9.43;59.92
70833;BME280;58452;59.418;17.962;2023-05-20T00:14:46;102964.41;;;9.43;60.17
70833;BME280;58452;59.418;17.962;2023-05-20T00:17:12;102966.91;;;9.44;60.22
70833;BME280;58452;59.418;17.962;2023-05-20T00:19:37;102964.41;;;9.43;60.44
70833;BME280;58452;59.418;17.962;2023-05-20T00:22:02;102968.91;;;9.39;60.67
70833;BME280;58452;59.418;17.962;2023-05-20T00:24:28;102964.72;;;9.37;60.57
70833;BME280;58452;59.418;17.962;2023-05-20T00:26:53;102969.03;;;9.36;60.94
70833;BME280;58452;59.418;17.962;2023-05-20T00:29:20;102974.19;;;9.36;60.97
70833;BME280;58452;59.418;17.962;2023-05-20T00:31:46;102967.53;;;9.32;61.37
70833;BME280;58452;59.418;17.962;2023-05-20T00:34:11;102971.03;;;9.31;61.02
70833;BME280;58452;59.418;17.962;2023-05-20T00:36:37;102975.41;;;9.29;60.86
70833;BME280;58452;59.418;17.962;2023-05-20T00:39:02;102966.03;;;9.28;60.92
70833;BME280;58452;59.418;17.962;2023-05-20T00:41:27;102969.81;;;9.21;60.96
70833;BME280;58452;59.418;17.962;2023-05-20T00:43:53;102968.34;;;9.17;60.71
70833;BME280;58452;59.418;17.962;2023-05-20T00:46:19;102971.81;;;9.16;60.93
70833;BME280;58452;59.418;17.962;2023-05-20T00:48:45;102976.44;;;9.09;61.46
70833;BME280;58452;59.418;17.962;2023-05-20T00:51:12;102981.81;;;9.05;61.03
70833;BME280;58452;59.418;17.962;2023-05-20T00:53:38;102977.72;;;9.01;61.31
70833;BME280;58452;59.418;17.962;2023-05-20T00:56:04;102974.69;;;8.93;61.55
70833;BME280;58452;59.418;17.962;2023-05-20T00:58:30;102967.28;;;8.87;61.95
70833;BME280;58452;59.418;17.962;2023-05-20T01:00:56;102976.81;;;8.84;61.68
70833;BME280;58452;59.418;17.962;2023-05-20T01:03:21;102966.00;;;8.78;61.82
70833;BME280;58452;59.418;17.962;2023-05-20T01:05:46;102967.97;;;8.73;61.86
70833;BME280;58452;59.418;17.962;2023-05-20T01:08:12;102971.50;;;8.70;61.82
70833;BME280;58452;59.418;17.962;2023-05-20T01:10:41;102973.56;;;8.64;62.21
70833;BME280;58452;59.418;17.962;2023-05-20T01:13:10;102978.91;;;8.59;62.23
70833;BME280;58452;59.418;17.962;2023-05-20T01:15:40;102963.00;;;8.51;62.35
70833;BME280;58452;59.418;17.962;2023-05-20T01:18:07;102979.66;;;8.44;62.64
70833;BME280;58452;59.418;17.962;2023-05-20T01:20:35;102979.03;;;8.39;62.95
70833;BME280;58452;59.418;17.962;2023-05-20T01:23:01;102973.06;;;8.39;62.92
70833;BME280;58452;59.418;17.962;2023-05-20T01:25:27;102979.19;;;8.36;63.18
70833;BME280;58452;59.418;17.962;2023-05-20T01:27:54;102975.16;;;8.30;63.04
70833;BME280;58452;59.418;17.962;2023-05-20T01:30:20;102982.13;;;8.28;63.17
70833;BME280;58452;59.418;17.962;2023-05-20T01:32:52;102980.41;;;8.27;63.16
70833;BME280;58452;59.418;17.962;2023-05-20T01:35:19;102975.44;;;8.24;63.16
70833;BME280;58452;59.418;17.962;2023-05-20T01:37:47;102973.69;;;8.25;63.59
70833;BME280;58452;59.418;17.962;2023-05-20T01:40:14;102980.72;;;8.21;63.50
70833;BME280;58452;59.418;17.962;2023-05-20T01:42:42;102973.00;;;8.21;63.29
70833;BME280;58452;59.418;17.962;2023-05-20T01:45:08;102966.53;;;8.13;63.86
70833;BME280;58452;59.418;17.962;2023-05-20T01:47:33;102975.00;;;8.15;63.92
70833;BME280;58452;59.418;17.962;2023-05-20T01:49:58;102974.31;;;8.11;63.79
70833;BME280;58452;59.418;17.962;2023-05-20T01:52:24;102966.94;;;8.04;63.91
70833;BME280;58452;59.418;17.962;2023-05-20T01:54:49;102980.59;;;8.06;63.70
70833;BME280;58452;59.418;17.962;2023-05-20T01:57:22;102979.75;;;8.05;63.61
70833;BME280;58452;59.418;17.962;2023-05-20T01:59:47;102972.22;;;8.01;63.81
70833;BME280;58452;59.418;17.962;2023-05-20T02:02:13;102978.31;;;8.00;63.67
70833;BME280;58452;59.418;17.962;2023-05-20T02:04:39;102978.66;;;7.92;63.39
70833;BME280;58452;59.418;17.962;2023-05-20T02:07:06;102988.78;;;7.95;63.73
70833;BME280;58452;59.418;17.962;2023-05-20T02:09:32;102984.75;;;7.90;63.97
70833;BME280;58452;59.418;17.962;2023-05-20T02:11:58;102985.72;;;7.87;64.33
70833;BME280;58452;59.418;17.962;2023-05-20T02:14:23;102986.72;;;7.84;64.40
70833;BME280;58452;59.418;17.962;2023-05-20T02:16:48;102985.03;;;7.83;64.26
70833;BME280;58452;59.418;17.962;2023-05-20T02:19:14;102991.97;;;7.81;64.39
70833;BME280;58452;59.418;17.962;2023-05-20T02:21:44;102992.88;;;7.80;64.15
70833;BME280;58452;59.418;17.962;2023-05-20T02:24:11;102987.03;;;7.77;64.42
70833;BME280;58452;59.418;17.962;2023-05-20T02:26:36;102993.91;;;7.76;64.27
70833;BME280;58452;59.418;17.962;2023-05-20T02:29:02;102984.69;;;7.72;64.07
70833;BME280;58452;59.418;17.962;2023-05-20T02:31:27;102997.53;;;7.72;64.16
70833;BME280;58452;59.418;17.962;2023-05-20T02:33:53;102985.75;;;7.67;63.98
70833;BME280;58452;59.418;17.962;2023-05-20T02:36:18;102991.69;;;7.69;64.29
70833;BME280;58452;59.418;17.962;2023-05-20T02:38:43;102991.00;;;7.65;64.46
70833;BME280;58452;59.418;17.962;2023-05-20T02:41:09;102982.63;;;7.60;64.87
70833;BME280;58452;59.418;17.962;2023-05-20T02:43:34;102989.44;;;7.61;64.72
70833;BME280;58452;59.418;17.962;2023-05-20T02:46:01;102993.06;;;7.57;64.98
70833;BME280;58452;59.418;17.962;2023-05-20T02:48:27;102990.56;;;7.56;64.97
70833;BME280;58452;59.418;17.962;2023-05-20T02:50:52;102993.06;;;7.57;65.25
70833;BME280;58452;59.418;17.962;2023-05-20T02:53:18;102994.88;;;7.55;65.05
70833;BME280;58452;59.418;17.962;2023-05-20T02:55:45;102993.19;;;7.54;65.58
70833;BME280;58452;59.418;17.962;2023-05-20T02:58:14;102990.63;;;7.54;65.58
70833;BME280;58452;59.418;17.962;2023-05-20T03:00:39;102991.50;;;7.53;65.65
70833;BME280;58452;59.418;17.962;2023-05-20T03:03:06;103004.31;;;7.55;66.07
70833;BME280;58452;59.418;17.962;2023-05-20T03:05:32;103011.94;;;7.56;66.10
70833;BME280;58452;59.418;17.962;2023-05-20T03:07:57;103005.84;;;7.59;66.11
70833;BME280;58452;59.418;17.962;2023-05-20T03:10:23;103003.19;;;7.60;66.33
70833;BME280;58452;59.418;17.962;2023-05-20T03:12:48;103009.03;;;7.64;66.23
70833;BME280;58452;59.418;17.962;2023-05-20T03:15:14;103003.00;;;7.65;66.68
70833;BME280;58452;59.418;17.962;2023-05-20T03:17:39;103005.44;;;7.68;66.59
70833;BME280;58452;59.418;17.962;2023-05-20T03:20:05;103002.03;;;7.67;66.89
70833;BME280;58452;59.418;17.962;2023-05-20T03:22:31;103006.81;;;7.75;67.43
70833;BME280;58452;59.418;17.962;2023-05-20T03:24:57;103009.34;;;7.76;67.18
70833;BME280;58452;59.418;17.962;2023-05-20T03:27:24;103013.38;;;7.82;67.36
70833;BME280;58452;59.418;17.962;2023-05-20T03:29:52;103014.91;;;7.86;67.79
70833;BME280;58452;59.418;17.962;2023-05-20T03:32:19;103017.13;;;7.94;67.46
70833;BME280;58452;59.418;17.962;2023-05-20T03:34:44;103022.03;;;8.00;67.49
70833;BME280;58452;59.418;17.962;2023-05-20T03:37:10;103017.63;;;8.02;66.83
70833;BME280;58452;59.418;17.962;2023-05-20T03:39:35;103020.00;;;8.06;66.96
70833;BME280;58452;59.418;17.962;2023-05-20T03:42:01;103022.13;;;8.15;66.78
70833;BME280;58452;59.418;17.962;2023-05-20T03:44:26;103032.78;;;8.26;66.21
70833;BME280;58452;59.418;17.962;2023-05-20T03:46:51;103025.78;;;8.30;65.16
70833;BME280;58452;59.418;17.962;2023-05-20T03:49:17;103018.69;;;8.35;64.41
70833;BME280;58452;59.418;17.962;2023-05-20T03:51:42;103013.25;;;8.41;63.57
70833;BME280;58452;59.418;17.962;2023-05-20T03:54:08;103016.00;;;8.55;63.28
70833;BME280;58452;59.418;17.962;2023-05-20T03:56:33;103016.94;;;8.71;62.74
70833;BME280;58452;59.418;17.962;2023-05-20T03:58:58;103010.28;;;8.67;62.16
70833;BME280;58452;59.418;17.962;2023-05-20T04:01:24;103018.25;;;8.80;61.30
70833;BME280;58452;59.418;17.962;2023-05-20T04:03:50;103022.72;;;8.94;61.07
70833;BME280;58452;59.418;17.962;2023-05-20T04:06:15;103020.47;;;9.05;60.67
70833;BME280;58452;59.418;17.962;2023-05-20T04:08:40;103025.28;;;9.11;60.25
70833;BME280;58452;59.418;17.962;2023-05-20T04:11:06;103021.97;;;9.09;58.07
70833;BME280;58452;59.418;17.962;2023-05-20T04:13:32;103022.28;;;9.20;57.34
70833;BME280;58452;59.418;17.962;2023-05-20T04:15:57;103021.56;;;9.33;57.22
70833;BME280;58452;59.418;17.962;2023-05-20T04:18:25;103019.50;;;9.40;56.65
70833;BME280;58452;59.418;17.962;2023-05-20T04:20:54;103020.81;;;9.49;56.99
70833;BME280;58452;59.418;17.962;2023-05-20T04:23:24;103024.78;;;9.54;56.71
70833;BME280;58452;59.418;17.962;2023-05-20T04:25:49;103023.72;;;9.58;55.18
70833;BME280;58452;59.418;17.962;2023-05-20T04:28:15;103020.69;;;9.67;55.27
70833;BME280;58452;59.418;17.962;2023-05-20T04:30:40;103026.84;;;9.80;55.07
70833;BME280;58452;59.418;17.962;2023-05-20T04:33:06;103023.38;;;9.81;53.64
70833;BME280;58452;59.418;17.962;2023-05-20T04:35:32;103029.88;;;9.89;53.56
70833;BME280;58452;59.418;17.962;2023-05-20T04:37:59;103024.06;;;10.01;53.48
70833;BME280;58452;59.418;17.962;2023-05-20T04:40:25;103033.88;;;10.10;53.18
70833;BME280;58452;59.418;17.962;2023-05-20T04:42:51;103029.69;;;10.24;53.20
70833;BME280;58452;59.418;17.962;2023-05-20T04:45:17;103027.59;;;10.31;51.66
70833;BME280;58452;59.418;17.962;2023-05-20T04:47:42;103021.75;;;10.43;51.71
70833;BME280;58452;59.418;17.962;2023-05-20T04:50:09;103024.59;;;10.54;51.27
70833;BME280;58452;59.418;17.962;2023-05-20T04:52:38;103020.41;;;10.67;51.63
70833;BME280;58452;59.418;17.962;2023-05-20T04:55:08;103013.03;;;10.75;51.54
70833;BME280;58452;59.418;17.962;2023-05-20T04:57:37;103015.19;;;10.83;51.09
70833;BME280;58452;59.418;17.962;2023-05-20T05:00:06;103024.09;;;10.93;50.90
70833;BME280;58452;59.418;17.962;2023-05-20T05:02:33;103010.84;;;10.84;49.37
70833;BME280;58452;59.418;17.962;2023-05-20T05:04:58;103013.84;;;10.92;49.12
70833;BME280;58452;59.418;17.962;2023-05-20T05:07:24;103015.72;;;11.04;48.25
70833;BME280;58452;59.418;17.962;2023-05-20T05:09:49;103015.56;;;11.21;48.23
70833;BME280;58452;59.418;17.962;2023-05-20T05:12:15;103025.19;;;11.33;48.07
70833;BME280;58452;59.418;17.962;2023-05-20T05:14:40;103031.03;;;11.37;48.01
70833;BME280;58452;59.418;17.962;2023-05-20T05:17:05;103026.78;;;11.50;47.71
70833;BME280;58452;59.418;17.962;2023-05-20T05:19:31;103027.69;;;11.49;47.38
70833;BME280;58452;59.418;17.962;2023-05-20T05:21:56;103025.84;;;11.65;48.04
70833;BME280;58452;59.418;17.962;2023-05-20T05:24:22;103027.56;;;11.80;48.20
70833;BME280;58452;59.418;17.962;2023-05-20T05:26:47;103020.03;;;11.90;48.41
70833;BME280;58452;59.418;17.962;2023-05-20T05:29:12;103025.13;;;12.05;47.99
70833;BME280;58452;59.418;17.962;2023-05-20T05:31:38;103031.81;;;12.22;47.97
70833;BME280;58452;59.418;17.962;2023-05-20T05:34:03;103030.50;;;12.29;48.11
70833;BME280;58452;59.418;17.962;2023-05-20T05:36:32;103024.47;;;12.43;48.05
70833;BME280;58452;59.418;17.962;2023-05-20T05:38:57;103031.97;;;12.47;48.19
70833;BME280;58452;59.418;17.962;2023-05-20T05:41:23;103028.28;;;12.64;47.34
70833;BME280;58452;59.418;17.962;2023-05-20T05:43:48;103026.13;;;12.70;47.14
70833;BME280;58452;59.418;17.962;2023-05-20T05:46:14;103023.78;;;12.93;47.77
70833;BME280;58452;59.418;17.962;2023-05-20T05:48:39;103022.34;;;13.01;47.51
70833;BME280;58452;59.418;17.962;2023-05-20T05:51:06;103021.53;;;13.01;46.29
70833;BME280;58452;59.418;17.962;2023-05-20T05:53:31;103027.13;;;13.07;46.10
70833;BME280;58452;59.418;17.962;2023-05-20T05:55:57;103031.84;;;13.15;46.21
70833;BME280;58452;59.418;17.962;2023-05-20T05:58:22;103029.25;;;13.15;46.20
70833;BME280;58452;59.418;17.962;2023-05-20T06:00:50;103039.00;;;13.24;45.39
70833;BME280;58452;59.418;17.962;2023-05-20T06:03:16;103035.91;;;13.44;45.60
70833;BME280;58452;59.418;17.962;2023-05-20T06:05:45;103036.53;;;13.60;45.14
70833;BME280;58452;59.418;17.962;2023-05-20T06:08:11;103038.69;;;13.66;46.30
70833;BME280;58452;59.418;17.962;2023-05-20T06:10:37;103034.63;;;13.75;45.07
70833;BME280;58452;59.418;17.962;2023-05-20T06:13:02;103029.44;;;13.62;44.18
70833;BME280;58452;59.418;17.962;2023-05-20T06:15:27;103042.31;;;13.77;44.95
70833;BME280;58452;59.418;17.962;2023-05-20T06:17:53;103042.78;;;13.94;44.29
70833;BME280;58452;59.418;17.962;2023-05-20T06:20:18;103047.72;;;13.86;43.65
70833;BME280;58452;59.418;17.962;2023-05-20T06:22:43;103048.03;;;13.82;43.90
70833;BME280;58452;59.418;17.962;2023-05-20T06:25:09;103046.44;;;13.92;44.05
70833;BME280;58452;59.418;17.962;2023-05-20T06:27:35;103040.25;;;14.18;44.56
70833;BME280;58452;59.418;17.962;2023-05-20T06:30:00;103049.66;;;14.44;43.76
70833;BME280;58452;59.418;17.962;2023-05-20T06:32:26;103034.25;;;14.65;44.19
70833;BME280;58452;59.418;17.962;2023-05-20T06:34:51;103031.84;;;14.75;41.87
70833;BME280;58452;59.418;17.962;2023-05-20T06:37:17;103035.88;;;14.90;42.30
70833;BME280;58452;59.418;17.962;2023-05-20T06:39:42;103038.63;;;14.88;43.01
70833;BME280;58452;59.418;17.962;2023-05-20T06:42:08;103032.69;;;14.86;42.29
70833;BME280;58452;59.418;17.962;2023-05-20T06:44:33;103035.41;;;14.85;41.40
70833;BME280;58452;59.418;17.962;2023-05-20T06:46:59;103040.09;;;14.80;42.26
70833;BME280;58452;59.418;17.962;2023-05-20T06:49:24;103040.09;;;15.14;41.18
70833;BME280;58452;59.418;17.962;2023-05-20T06:51:50;103042.13;;;15.22;41.42
70833;BME280;58452;59.418;17.962;2023-05-20T06:54:15;103052.72;;;15.08;40.93
70833;BME280;58452;59.418;17.962;2023-05-20T06:56:40;103046.09;;;14.93;41.71
70833;BME280;58452;59.418;17.962;2023-05-20T06:59:06;103040.94;;;15.15;41.45
70833;BME280;58452;59.418;17.962;2023-05-20T07:01:32;103043.66;;;15.25;41.25
70833;BME280;58452;59.418;17.962;2023-05-20T07:03:57;103050.03;;;15.55;41.24
70833;BME280;58452;59.418;17.962;2023-05-20T07:06:22;103048.34;;;15.66;40.74
70833;BME280;58452;59.418;17.962;2023-05-20T07:08:48;103043.97;;;15.88;40.52
70833;BME280;58452;59.418;17.962;2023-05-20T07:11:13;103044.31;;;16.06;39.72
70833;BME280;58452;59.418;17.962;2023-05-20T07:13:39;103048.75;;;16.26;40.80
70833;BME280;58452;59.418;17.962;2023-05-20T07:16:04;103038.97;;;15.96;39.70
70833;BME280;58452;59.418;17.962;2023-05-20T07:18:30;103033.78;;;15.63;40.93
70833;BME280;58452;59.418;17.962;2023-05-20T07:20:55;103043.59;;;16.04;40.82
70833;BME280;58452;59.418;17.962;2023-05-20T07:23:22;103040.94;;;16.26;41.47
70833;BME280;58452;59.418;17.962;2023-05-20T07:25:47;103039.00;;;16.50;39.22
70833;BME280;58452;59.418;17.962;2023-05-20T07:28:15;103040.28;;;16.56;39.00
70833;BME280;58452;59.418;17.962;2023-05-20T07:30:41;103037.25;;;16.72;38.90
70833;BME280;58452;59.418;17.962;2023-05-20T07:33:07;103044.03;;;16.63;38.23
70833;BME280;58452;59.418;17.962;2023-05-20T07:35:32;103042.28;;;16.84;39.53
70833;BME280;58452;59.418;17.962;2023-05-20T07:37:57;103042.56;;;17.02;39.33
70833;BME280;58452;59.418;17.962;2023-05-20T07:40:23;103038.44;;;17.20;39.00
70833;BME280;58452;59.418;17.962;2023-05-20T07:42:48;103037.00;;;17.37;38.35
70833;BME280;58452;59.418;17.962;2023-05-20T07:45:13;103044.25;;;17.33;37.44
70833;BME280;58452;59.418;17.962;2023-05-20T07:47:39;103040.72;;;16.93;37.70
70833;BME280;58452;59.418;17.962;2023-05-20T07:50:05;103034.84;;;17.21;37.11
70833;BME280;58452;59.418;17.962;2023-05-20T07:52:30;103035.97;;;17.28;35.97
70833;BME280;58452;59.418;17.962;2023-05-20T07:54:56;103040.38;;;17.07;35.70
70833;BME280;58452;59.418;17.962;2023-05-20T07:57:21;103031.28;;;17.22;36.63
70833;BME280;58452;59.418;17.962;2023-05-20T07:59:47;103025.53;;;17.28;35.74
70833;BME280;58452;59.418;17.962;2023-05-20T08:02:14;103028.53;;;16.62;36.80
70833;BME280;58452;59.418;17.962;2023-05-20T08:04:41;103034.75;;;16.38;38.01
70833;BME280;58452;59.418;17.962;2023-05-20T08:07:07;103028.97;;;16.35;37.74
70833;BME280;58452;59.418;17.962;2023-05-20T08:09:33;103031.59;;;16.55;37.69
70833;BME280;58452;59.418;17.962;2023-05-20T08:11:58;103028.88;;;16.89;38.82
70833;BME280;58452;59.418;17.962;2023-05-20T08:14:24;103022.38;;;17.04;36.98
70833;BME280;58452;59.418;17.962;2023-05-20T08:16:49;103029.38;;;16.83;36.98
70833;BME280;58452;59.418;17.962;2023-05-20T08:19:14;103025.44;;;16.68;38.89
70833;BME280;58452;59.418;17.962;2023-05-20T08:21:40;103025.56;;;16.87;38.33
70833;BME280;58452;59.418;17.962;2023-05-20T08:24:06;103021.09;;;17.19;39.10
70833;BME280;58452;59.418;17.962;2023-05-20T08:26:32;103025.34;;;17.41;38.47
70833;BME280;58452;59.418;17.962;2023-05-20T08:28:57;103026.81;;;17.34;39.49
70833;BME280;58452;59.418;17.962;2023-05-20T08:31:23;103031.13;;;17.44;36.85
70833;BME280;58452;59.418;17.962;2023-05-20T08:33:48;103019.91;;;17.53;37.23
70833;BME280;58452;59.418;17.962;2023-05-20T08:36:14;103018.38;;;17.72;36.82
70833;BME280;58452;59.418;17.962;2023-05-20T08:38:40;103018.19;;;17.64;36.43
70833;BME280;58452;59.418;17.962;2023-05-20T08:41:05;103017.06;;;17.56;36.65
70833;BME280;58452;59.418;17.962;2023-05-20T08:43:31;103024.34;;;17.93;36.06
70833;BME280;58452;59.418;17.962;2023-05-20T08:45:56;103017.88;;;18.16;38.43
70833;BME280;58452;59.418;17.962;2023-05-20T08:48:25;103022.88;;;18.38;37.87
70833;BME280;58452;59.418;17.962;2023-05-20T08:50:52;103014.66;;;18.62;36.53
70833;BME280;58452;59.418;17.962;2023-05-20T08:53:21;103013.81;;;18.81;37.81
70833;BME280;58452;59.418;17.962;2023-05-20T08:55:55;103016.41;;;19.00;37.31
70833;BME280;58452;59.418;17.962;2023-05-20T08:58:23;103011.00;;;19.11;34.01
70833;BME280;58452;59.418;17.962;2023-05-20T09:00:50;103005.19;;;19.17;34.63
70833;BME280;58452;59.418;17.962;2023-05-20T09:03:17;103011.38;;;19.26;35.40
70833;BME280;58452;59.418;17.962;2023-05-20T09:05:45;103009.69;;;19.34;34.29
70833;BME280;58452;59.418;17.962;2023-05-20T09:08:10;102996.84;;;19.50;34.95
70833;BME280;58452;59.418;17.962;2023-05-20T09:10:38;103005.28;;;19.72;35.75
70833;BME280;58452;59.418;17.962;2023-05-20T09:13:04;103005.38;;;19.80;32.64
70833;BME280;58452;59.418;17.962;2023-05-20T09:15:31;103001.13;;;19.52;32.25
70833;BME280;58452;59.418;17.962;2023-05-20T09:18:01;103009.59;;;19.63;33.28
70833;BME280;58452;59.418;17.962;2023-05-20T09:20:26;103002.16;;;19.86;31.89
70833;BME280;58452;59.418;17.962;2023-05-20T09:22:58;103003.91;;;19.68;32.28
70833;BME280;58452;59.418;17.962;2023-05-20T09:25:24;103002.31;;;19.84;31.22
70833;BME280;58452;59.418;17.962;2023-05-20T09:27:49;102997.97;;;19.93;32.04
70833;BME280;58452;59.418;17.962;2023-05-20T09:30:19;102998.09;;;19.74;32.06
70833;BME280;58452;59.418;17.962;2023-05-20T09:32:54;103003.31;;;20.01;30.14
70833;BME280;58452;59.418;17.962;2023-05-20T09:35:20;103002.88;;;20.23;32.02
70833;BME280;58452;59.418;17.962;2023-05-20T09:37:46;102993.84;;;20.35;31.54
70833;BME280;58452;59.418;17.962;2023-05-20T09:40:12;103002.66;;;20.52;32.52
70833;BME280;58452;59.418;17.962;2023-05-20T09:42:43;103001.38;;;20.56;29.30
70833;BME280;58452;59.418;17.962;2023-05-20T09:45:11;102993.78;;;20.71;29.85
70833;BME280;58452;59.418;17.962;2023-05-20T09:47:40;102999.81;;;20.89;30.13
70833;BME280;58452;59.418;17.962;2023-05-20T09:50:07;103000.69;;;20.72;28.33
70833;BME280;58452;59.418;17.962;2023-05-20T09:52:35;102992.13;;;20.70;28.36
70833;BME280;58452;59.418;17.962;2023-05-20T09:55:02;102997.88;;;20.91;28.46
70833;BME280;58452;59.418;17.962;2023-05-20T09:57:34;102995.13;;;20.75;27.37
70833;BME280;58452;59.418;17.962;2023-05-20T10:00:00;102995.75;;;20.69;26.83
70833;BME280;58452;59.418;17.962;2023-05-20T10:02:26;102995.84;;;20.85;27.36
70833;BME280;58452;59.418;17.962;2023-05-20T10:04:53;102985.78;;;20.55;28.02
70833;BME280;58452;59.418;17.962;2023-05-20T10:19:11;102984.69;;;20.83;30.43
70833;BME280;58452;59.418;17.962;2023-05-20T10:21:41;102977.91;;;20.98;30.04
70833;BME280;58452;59.418;17.962;2023-05-20T10:24:08;102977.50;;;21.11;29.30
70833;BME280;58452;59.418;17.962;2023-05-20T10:26:35;102964.78;;;21.24;29.19
70833;BME280;58452;59.418;17.962;2023-05-20T10:29:01;102969.59;;;21.36;29.74
70833;BME280;58452;59.418;17.962;2023-05-20T10:31:26;102972.47;;;21.25;24.97
70833;BME280;58452;59.418;17.962;2023-05-20T10:33:52;102961.66;;;21.28;27.91
70833;BME280;58452;59.418;17.962;2023-05-20T10:36:36;102971.59;;;21.51;25.98
70833;BME280;58452;59.418;17.962;2023-05-20T10:39:02;102971.59;;;21.51;25.48
70833;BME280;58452;59.418;17.962;2023-05-20T10:41:29;102967.34;;;21.58;27.74
70833;BME280;58452;59.418;17.962;2023-05-20T10:44:04;102979.16;;;21.46;25.47
70833;BME280;58452;59.418;17.962;2023-05-20T10:46:31;102964.06;;;21.56;27.12
70833;BME280;58452;59.418;17.962;2023-05-20T10:48:57;102968.06;;;21.68;27.66
70833;BME280;58452;59.418;17.962;2023-05-20T10:51:23;102965.75;;;21.73;29.38
70833;BME280;58452;59.418;17.962;2023-05-20T10:53:54;102971.41;;;21.86;28.14
70833;BME280;58452;59.418;17.962;2023-05-20T10:56:21;102956.97;;;21.98;25.65
70833;BME280;58452;59.418;17.962;2023-05-20T10:58:47;102954.03;;;22.01;25.16
70833;BME280;58452;59.418;17.962;2023-05-20T11:01:13;102965.84;;;21.97;24.89
70833;BME280;58452;59.418;17.962;2023-05-20T11:03:43;102957.25;;;21.87;25.76
70833;BME280;58452;59.418;17.962;2023-05-20T11:06:13;102959.91;;;21.95;25.74
70833;BME280;58452;59.418;17.962;2023-05-20T11:08:38;102965.19;;;22.03;26.81
70833;BME280;58452;59.418;17.962;2023-05-20T11:11:04;102956.00;;;22.15;27.31
70833;BME280;58452;59.418;17.962;2023-05-20T11:13:30;102947.94;;;22.17;27.44
70833;BME280;58452;59.418;17.962;2023-05-20T11:15:56;102954.38;;;22.14;26.77
70833;BME280;58452;59.418;17.962;2023-05-20T11:18:25;102948.78;;;22.17;25.64
70833;BME280;58452;59.418;17.962;2023-05-20T11:20:51;102943.50;;;21.93;25.09
70833;BME280;58452;59.418;17.962;2023-05-20T11:23:18;102942.19;;;22.13;27.24
70833;BME280;58452;59.418;17.962;2023-05-20T11:25:43;102939.22;;;22.24;28.88
70833;BME280;58452;59.418;17.962;2023-05-20T11:28:13;102931.00;;;22.44;28.56
70833;BME280;58452;59.418;17.962;2023-05-20T11:30:41;102925.88;;;22.58;28.01
70833;BME280;58452;59.418;17.962;2023-05-20T11:33:11;102926.03;;;22.81;28.40
70833;BME280;58452;59.418;17.962;2023-05-20T11:35:44;102926.44;;;23.01;24.54
70833;BME280;58452;59.418;17.962;2023-05-20T11:38:10;102928.31;;;22.92;25.36
70833;BME280;58452;59.418;17.962;2023-05-20T11:40:35;102925.38;;;21.82;26.90
70833;BME280;58452;59.418;17.962;2023-05-20T11:43:02;102927.19;;;21.89;28.33
70833;BME280;58452;59.418;17.962;2023-05-20T11:45:42;102921.97;;;22.14;26.26
70833;BME280;58452;59.418;17.962;2023-05-20T11:48:09;102915.88;;;22.29;26.09
70833;BME280;58452;59.418;17.962;2023-05-20T11:50:39;102909.66;;;22.22;25.39
70833;BME280;58452;59.418;17.962;2023-05-20T11:53:07;102906.19;;;22.14;25.54
70833;BME280;58452;59.418;17.962;2023-05-20T11:55:33;102908.31;;;22.34;25.99
70833;BME280;58452;59.418;17.962;2023-05-20T11:58:00;102897.44;;;22.54;25.94
70833;BME280;58452;59.418;17.962;2023-05-20T12:00:26;102904.81;;;22.58;24.90
70833;BME280;58452;59.418;17.962;2023-05-20T12:02:52;102897.75;;;22.51;25.25
70833;BME280;58452;59.418;17.962;2023-05-20T12:05:17;102897.34;;;22.94;27.25
70833;BME280;58452;59.418;17.962;2023-05-20T12:07:43;102906.84;;;23.11;25.65
70833;BME280;58452;59.418;17.962;2023-05-20T12:10:09;102892.66;;;23.12;25.38
70833;BME280;58452;59.418;17.962;2023-05-20T12:12:36;102894.66;;;23.41;23.12
70833;BME280;58452;59.418;17.962;2023-05-20T12:15:03;102894.34;;;23.67;23.90
70833;BME280;58452;59.418;17.962;2023-05-20T12:17:28;102889.88;;;23.45;22.24
70833;BME280;58452;59.418;17.962;2023-05-20T12:19:54;102892.19;;;23.48;21.07
70833;BME280;58452;59.418;17.962;2023-05-20T12:22:19;102885.31;;;23.30;21.69
70833;BME280;58452;59.418;17.962;2023-05-20T12:24:44;102880.97;;;22.68;22.37
70833;BME280;58452;59.418;17.962;2023-05-20T12:27:10;102890.78;;;22.90;23.90
70833;BME280;58452;59.418;17.962;2023-05-20T12:29:36;102886.56;;;23.12;22.78
70833;BME280;58452;59.418;17.962;2023-05-20T12:32:02;102885.91;;;23.18;25.03
70833;BME280;58452;59.418;17.962;2023-05-20T12:34:27;102884.47;;;23.07;23.80
70833;BME280;58452;59.418;17.962;2023-05-20T12:36:53;102877.38;;;22.45;25.93
70833;BME280;58452;59.418;17.962;2023-05-20T12:39:18;102892.38;;;22.28;24.18
70833;BME280;58452;59.418;17.962;2023-05-20T12:41:44;102890.91;;;21.93;24.72
70833;BME280;58452;59.418;17.962;2023-05-20T12:44:09;102885.28;;;21.88;25.99
70833;BME280;58452;59.418;17.962;2023-05-20T12:46:35;102902.00;;;20.79;27.00
70833;BME280;58452;59.418;17.962;2023-05-20T12:49:01;102901.41;;;20.93;25.93